Michelle Golding — WDH7930 — position and weather

sailwx.info

Track history (hours):
 
Tides and Currents Weather Stations Pressure Air Temp Water Temp Dewpoint Dewpoint Depression Visibility Wind Speed Wind Dir Waves Ship Positions

Michelle Golding

Owner: GOLDING BARGE LINE, INC, VICKSBURG, MS. More information available from US FCC via Universal Licensing System and Coast Guard Vessel Documentation Center.

Last reported at 2018-Feb-20 17:30 UTC. Time now 2018-Feb-20 17:31 UTC.
Position N 29°36' W 094°22'.

Length 229 m; draft 2.7 m.

Type: . MMSI: 367652980.

Date/timePositionNaut miles runAvg speedWind from/ knotsBaromVisibWave heightAir tempDewpointWater temp
2018-Feb-20 17:30N 29°36' W 094°22'1 1.1
2018-Feb-20 17:00N 29°37' W 094°21'3 5.1
2018-Feb-20 16:29N 29°38' W 094°19'2 5.2
2018-Feb-20 16:01N 29°39' W 094°16'3 5.2
2018-Feb-20 15:30N 29°40' W 094°13'3 5.2
2018-Feb-20 15:01N 29°41' W 094°11'2 4.9
2018-Feb-20 14:31N 29°42' W 094°08'2 3.2
2018-Feb-20 14:00N 29°43' W 094°07'2 3.2
2018-Feb-20 13:30N 29°44' W 094°05'2 3.7
2018-Feb-20 13:00N 29°46' W 094°04'0 0.4
2018-Feb-20 12:31N 29°46' W 094°03'0 0.1
2018-Feb-20 12:01N 29°46' W 094°03'0 0.1
2018-Feb-20 11:30N 29°46' W 094°03'0 0.0
2018-Feb-20 11:01N 29°46' W 094°03'0 0.0
2018-Feb-20 10:30N 29°46' W 094°03'0 0.0
2018-Feb-20 10:00N 29°46' W 094°03'1 1.6
2018-Feb-20 09:31N 29°46' W 094°03'2 4.3
2018-Feb-20 09:01N 29°48' W 094°01'2 4.5
2018-Feb-20 08:31N 29°49' W 093°59'2 4.4
2018-Feb-20 08:01N 29°51' W 093°57'4 7.4
2018-Feb-20 07:30N 29°54' W 093°54'4 8.0
2018-Feb-20 07:01N 29°57' W 093°52'3 6.2
2018-Feb-20 06:30N 29°59' W 093°49'4 7.2
2018-Feb-20 06:00N 30°01' W 093°46'3 6.5
2018-Feb-20 05:31N 30°03' W 093°43'2 3.9
2018-Feb-20 05:01N 30°04' W 093°41'2 4.1
2018-Feb-20 04:28N 30°04' W 093°38'2 4.4
2018-Feb-20 04:00N 30°04' W 093°36'2 4.5
2018-Feb-20 03:31N 30°04' W 093°33'2 4.6
2018-Feb-20 03:01N 30°04' W 093°31'2 4.7
2018-Feb-20 02:30N 30°04' W 093°28'2 4.7
2018-Feb-20 02:00N 30°04' W 093°25'2 4.6
2018-Feb-20 01:31N 30°04' W 093°23'2 4.1
2018-Feb-20 01:00N 30°04' W 093°20'2 4.2
2018-Feb-20 00:31N 30°06' W 093°19'2 3.4
2018-Feb-20 00:01N 30°05' W 093°17'2 4.1
2018-Feb-19 23:30N 30°03' W 093°16'2 4.0
2018-Feb-19 23:00N 30°02' W 093°15'2 4.4
2018-Feb-19 22:31N 29°60' W 093°13'2 4.8
2018-Feb-19 22:01N 29°58' W 093°11'2 4.7
2018-Feb-19 21:30N 29°56' W 093°10'2 4.4
2018-Feb-19 21:01N 29°56' W 093°07'2 4.6
2018-Feb-19 20:29N 29°56' W 093°04'36 4.4
2018-Feb-19 12:13N 29°52' W 092°23'1 4.0
2018-Feb-19 11:51N 29°51' W 092°22'1 3.9
2018-Feb-19 11:30N 29°51' W 092°20'2 4.0
2018-Feb-19 11:00N 29°50' W 092°18'2 4.1
2018-Feb-19 10:31N 29°49' W 092°16'2 4.1
2018-Feb-19 10:01N 29°48' W 092°14'2 4.4
2018-Feb-19 09:30N 29°47' W 092°12'2 3.2
2018-Feb-19 09:00N 29°47' W 092°10'2 4.5
2018-Feb-19 08:30N 29°47' W 092°07'2 4.6
2018-Feb-19 08:01N 29°48' W 092°05'2 4.5
2018-Feb-19 07:31N 29°49' W 092°03'2 4.6
2018-Feb-19 07:01N 29°50' W 092°00'2 4.6
2018-Feb-19 06:30N 29°50' W 091°58'56 4.2
2018-Feb-18 17:12N 29°34' W 090°56'1 4.4
2018-Feb-18 16:53N 29°33' W 090°55'2 4.9
2018-Feb-18 16:31N 29°32' W 090°53'2 4.6
2018-Feb-18 16:01N 29°32' W 090°50'2 4.9
2018-Feb-18 15:30N 29°32' W 090°47'2 4.0
2018-Feb-18 15:01N 29°33' W 090°45'0 0.9
2018-Feb-18 14:31N 29°34' W 090°45'0 0.0
2018-Feb-18 13:56N 29°34' W 090°45'0 0.0
2018-Feb-18 13:31N 29°34' W 090°45'0 0.0
2018-Feb-18 12:59N 29°34' W 090°45'0 0.0
2018-Feb-18 12:27N 29°34' W 090°45'0 0.0
2018-Feb-18 12:01N 29°34' W 090°45'0 0.0
2018-Feb-18 11:26N 29°34' W 090°45'0 0.0
2018-Feb-18 11:01N 29°34' W 090°45'0 0.0
2018-Feb-18 10:31N 29°34' W 090°45'0 0.0
2018-Feb-18 10:01N 29°34' W 090°45'0 0.0
2018-Feb-18 09:30N 29°34' W 090°45'0 0.0
2018-Feb-18 09:00N 29°34' W 090°45'0 0.0
2018-Feb-18 08:31N 29°34' W 090°45'0 0.0
2018-Feb-18 08:00N 29°34' W 090°45'0 0.0
2018-Feb-18 07:29N 29°34' W 090°45'0 0.0
2018-Feb-18 07:00N 29°34' W 090°45'0 0.0
2018-Feb-18 06:31N 29°34' W 090°45'1 1.3
2018-Feb-18 06:01N 29°34' W 090°44'1 2.3
2018-Feb-18 05:31N 29°34' W 090°43'2 4.0
2018-Feb-18 05:00N 29°36' W 090°43'1 3.0
2018-Feb-18 04:30N 29°36' W 090°41'2 4.2
2018-Feb-18 04:00N 29°35' W 090°39'2 4.1
2018-Feb-18 03:30N 29°35' W 090°36'2 4.0
2018-Feb-18 03:00N 29°34' W 090°34'2 4.2
2018-Feb-18 02:31N 29°34' W 090°32'2 4.5
2018-Feb-18 02:00N 29°34' W 090°29'2 3.8
2018-Feb-18 01:27N 29°33' W 090°27'  
Track history (hours):
 
Tides and Currents Weather Stations Pressure Air Temp Water Temp Dewpoint Dewpoint Depression Visibility Wind Speed Wind Dir Waves Ship Positions

Michelle Golding

Owner: GOLDING BARGE LINE, INC, VICKSBURG, MS. More information available from US FCC via Universal Licensing System and Coast Guard Vessel Documentation Center.

Last reported at 2018-Feb-20 17:30 UTC. Time now 2018-Feb-20 17:31 UTC.
Position N 29°36' W 094°22'.

Length 229 m; draft 2.7 m.

Type: . MMSI: 367652980.

Date/timePositionNaut miles runAvg speedWind from/ knotsBaromVisibWave heightAir tempDewpointWater temp
2018-Feb-20 17:30N 29°36' W 094°22'1 1.1
2018-Feb-20 17:00N 29°37' W 094°21'3 5.1
2018-Feb-20 16:29N 29°38' W 094°19'2 5.2
2018-Feb-20 16:01N 29°39' W 094°16'3 5.2
2018-Feb-20 15:30N 29°40' W 094°13'3 5.2
2018-Feb-20 15:01N 29°41' W 094°11'2 4.9
2018-Feb-20 14:31N 29°42' W 094°08'2 3.2
2018-Feb-20 14:00N 29°43' W 094°07'2 3.2
2018-Feb-20 13:30N 29°44' W 094°05'2 3.7
2018-Feb-20 13:00N 29°46' W 094°04'0 0.4
2018-Feb-20 12:31N 29°46' W 094°03'0 0.1
2018-Feb-20 12:01N 29°46' W 094°03'0 0.1
2018-Feb-20 11:30N 29°46' W 094°03'0 0.0
2018-Feb-20 11:01N 29°46' W 094°03'0 0.0
2018-Feb-20 10:30N 29°46' W 094°03'0 0.0
2018-Feb-20 10:00N 29°46' W 094°03'1 1.6
2018-Feb-20 09:31N 29°46' W 094°03'2 4.3
2018-Feb-20 09:01N 29°48' W 094°01'2 4.5
2018-Feb-20 08:31N 29°49' W 093°59'2 4.4
2018-Feb-20 08:01N 29°51' W 093°57'4 7.4
2018-Feb-20 07:30N 29°54' W 093°54'4 8.0
2018-Feb-20 07:01N 29°57' W 093°52'3 6.2
2018-Feb-20 06:30N 29°59' W 093°49'4 7.2
2018-Feb-20 06:00N 30°01' W 093°46'3 6.5
2018-Feb-20 05:31N 30°03' W 093°43'2 3.9
2018-Feb-20 05:01N 30°04' W 093°41'2 4.1
2018-Feb-20 04:28N 30°04' W 093°38'2 4.4
2018-Feb-20 04:00N 30°04' W 093°36'2 4.5
2018-Feb-20 03:31N 30°04' W 093°33'2 4.6
2018-Feb-20 03:01N 30°04' W 093°31'2 4.7
2018-Feb-20 02:30N 30°04' W 093°28'2 4.7
2018-Feb-20 02:00N 30°04' W 093°25'2 4.6
2018-Feb-20 01:31N 30°04' W 093°23'2 4.1
2018-Feb-20 01:00N 30°04' W 093°20'2 4.2
2018-Feb-20 00:31N 30°06' W 093°19'2 3.4
2018-Feb-20 00:01N 30°05' W 093°17'2 4.1
2018-Feb-19 23:30N 30°03' W 093°16'2 4.0
2018-Feb-19 23:00N 30°02' W 093°15'2 4.4
2018-Feb-19 22:31N 29°60' W 093°13'2 4.8
2018-Feb-19 22:01N 29°58' W 093°11'2 4.7
2018-Feb-19 21:30N 29°56' W 093°10'2 4.4
2018-Feb-19 21:01N 29°56' W 093°07'2 4.6
2018-Feb-19 20:29N 29°56' W 093°04'36 4.4
2018-Feb-19 12:13N 29°52' W 092°23'1 4.0
2018-Feb-19 11:51N 29°51' W 092°22'1 3.9
2018-Feb-19 11:30N 29°51' W 092°20'2 4.0
2018-Feb-19 11:00N 29°50' W 092°18'2 4.1
2018-Feb-19 10:31N 29°49' W 092°16'2 4.1
2018-Feb-19 10:01N 29°48' W 092°14'2 4.4
2018-Feb-19 09:30N 29°47' W 092°12'2 3.2
2018-Feb-19 09:00N 29°47' W 092°10'2 4.5
2018-Feb-19 08:30N 29°47' W 092°07'2 4.6
2018-Feb-19 08:01N 29°48' W 092°05'2 4.5
2018-Feb-19 07:31N 29°49' W 092°03'2 4.6
2018-Feb-19 07:01N 29°50' W 092°00'2 4.6
2018-Feb-19 06:30N 29°50' W 091°58'56 4.2
2018-Feb-18 17:12N 29°34' W 090°56'1 4.4
2018-Feb-18 16:53N 29°33' W 090°55'2 4.9
2018-Feb-18 16:31N 29°32' W 090°53'2 4.6
2018-Feb-18 16:01N 29°32' W 090°50'2 4.9
2018-Feb-18 15:30N 29°32' W 090°47'2 4.0
2018-Feb-18 15:01N 29°33' W 090°45'0 0.9
2018-Feb-18 14:31N 29°34' W 090°45'0 0.0
2018-Feb-18 13:56N 29°34' W 090°45'0 0.0
2018-Feb-18 13:31N 29°34' W 090°45'0 0.0
2018-Feb-18 12:59N 29°34' W 090°45'0 0.0
2018-Feb-18 12:27N 29°34' W 090°45'0 0.0
2018-Feb-18 12:01N 29°34' W 090°45'0 0.0
2018-Feb-18 11:26N 29°34' W 090°45'0 0.0
2018-Feb-18 11:01N 29°34' W 090°45'0 0.0
2018-Feb-18 10:31N 29°34' W 090°45'0 0.0
2018-Feb-18 10:01N 29°34' W 090°45'0 0.0
2018-Feb-18 09:30N 29°34' W 090°45'0 0.0
2018-Feb-18 09:00N 29°34' W 090°45'0 0.0
2018-Feb-18 08:31N 29°34' W 090°45'0 0.0
2018-Feb-18 08:00N 29°34' W 090°45'0 0.0
2018-Feb-18 07:29N 29°34' W 090°45'0 0.0
2018-Feb-18 07:00N 29°34' W 090°45'0 0.0
2018-Feb-18 06:31N 29°34' W 090°45'1 1.3
2018-Feb-18 06:01N 29°34' W 090°44'1 2.3
2018-Feb-18 05:31N 29°34' W 090°43'2 4.0
2018-Feb-18 05:00N 29°36' W 090°43'1 3.0
2018-Feb-18 04:30N 29°36' W 090°41'2 4.2
2018-Feb-18 04:00N 29°35' W 090°39'2 4.1
2018-Feb-18 03:30N 29°35' W 090°36'2 4.0
2018-Feb-18 03:00N 29°34' W 090°34'2 4.2
2018-Feb-18 02:31N 29°34' W 090°32'2 4.5
2018-Feb-18 02:00N 29°34' W 090°29'2 3.8
2018-Feb-18 01:27N 29°33' W 090°27'  

Dump ship's entire track history